Time;durP1;ratioP1;P1;durP2;ratioP2;P2;SDS_P1;SDS_P2;PMS_P1;PMS_P2;Temp;Humidity;BMP_temperature;BMP_pressure;BME280_temperature;BME280_humidity;BME280_pressure;Samples;Min_cycle;Max_cycle;Signal;HPM_P1;HPM_P2
2021/12/31 00:02:25;;;;;;;;;;;;;;;19.25;59.14;101231.38;7279598;19;151800;-52
2021/12/31 00:04:52;;;;;;;;;;;;;;;19.25;59.12;101225.78;7281077;19;152708;-52
2021/12/31 00:07:20;;;;;;;;;;;;;;;19.26;58.63;101230.25;7278761;19;152517;-52
2021/12/31 00:09:47;;;;;;;;;;;;;;;19.27;58.92;101234.72;7280620;19;151877;-53
2021/12/31 00:12:14;;;;;;;;;;;;;;;19.23;59.00;101237.28;7286489;19;153351;-52
2021/12/31 00:14:41;;;;;;;;;;;;;;;19.26;58.64;101238.66;7280859;19;151901;-52
2021/12/31 00:17:08;;;;;;;;;;;;;;;19.23;58.87;101234.47;7277288;19;152111;-52
2021/12/31 00:19:40;;;;;;;;;;;;;;;19.24;58.65;101233.34;7278269;19;154058;-52
2021/12/31 00:24:37;;;;;;;;;;;;;;;19.24;58.89;101235.31;7280385;19;152975;-52
2021/12/31 00:27:05;;;;;;;;;;;;;;;19.24;59.02;101235.31;7278332;19;153302;-52
2021/12/31 00:29:32;;;;;;;;;;;;;;;19.23;58.64;101242.03;7279888;19;152298;-52
2021/12/31 00:31:59;;;;;;;;;;;;;;;19.25;58.81;101228.59;7286254;19;152267;-52
2021/12/31 00:34:26;;;;;;;;;;;;;;;19.24;58.91;101221.31;7277937;19;152284;-52
2021/12/31 00:36:53;;;;;;;;;;;;;;;19.25;58.60;101221.03;7280137;19;152800;-51
2021/12/31 00:39:20;;;;;;;;;;;;;;;19.24;58.89;101212.91;7276976;19;153563;-50
2021/12/31 00:41:47;;;;;;;;;;;;;;;19.25;58.61;101223.81;7287821;19;151787;-51
2021/12/31 00:44:16;;;;;;;;;;;;;;;19.24;58.57;101222.16;7286409;19;152616;-50
2021/12/31 00:46:44;;;;;;;;;;;;;;;19.22;58.75;101209.53;7284514;19;153319;-51
2021/12/31 00:49:12;;;;;;;;;;;;;;;19.22;58.68;101213.19;7285846;19;152439;-50
2021/12/31 00:51:39;;;;;;;;;;;;;;;19.23;58.38;101214.03;7283463;19;153038;-51
2021/12/31 00:54:06;;;;;;;;;;;;;;;19.23;58.63;101202.81;7290665;19;152536;-51
2021/12/31 00:56:33;;;;;;;;;;;;;;;19.22;58.47;101215.16;7284264;19;153171;-51
2021/12/31 00:59:00;;;;;;;;;;;;;;;19.24;58.46;101210.94;7280848;19;152771;-50
2021/12/31 01:01:30;;;;;;;;;;;;;;;19.22;58.23;101223.56;7285625;19;152020;-50
2021/12/31 01:03:57;;;;;;;;;;;;;;;19.21;58.50;101217.13;7286151;19;153340;-49
2021/12/31 01:06:24;;;;;;;;;;;;;;;19.19;58.36;101207.34;7284060;19;153256;-50
2021/12/31 01:08:51;;;;;;;;;;;;;;;19.20;58.49;101214.63;7287145;19;152167;-50
2021/12/31 01:11:18;;;;;;;;;;;;;;;19.18;58.30;101211.25;7283967;19;153251;-50
2021/12/31 01:16:23;;;;;;;;;;;;;;;19.22;58.37;101220.75;7290782;19;152340;-50
2021/12/31 01:21:20;;;;;;;;;;;;;;;19.20;58.02;101223.88;7285525;19;151995;-50
2021/12/31 01:23:48;;;;;;;;;;;;;;;19.21;58.06;101216.31;7283821;19;152851;-51
2021/12/31 01:26:16;;;;;;;;;;;;;;;19.21;58.37;101227.50;7282477;19;154143;-50
2021/12/31 01:28:42;;;;;;;;;;;;;;;19.22;58.21;101220.75;7284360;19;152330;-50
2021/12/31 01:31:09;;;;;;;;;;;;;;;19.24;58.18;101232.50;7282129;19;152761;-51
2021/12/31 01:33:36;;;;;;;;;;;;;;;19.19;57.99;101229.75;7282057;19;153990;-51
2021/12/31 01:36:05;;;;;;;;;;;;;;;19.21;57.92;101225.53;7285236;19;152002;-50
2021/12/31 01:38:32;;;;;;;;;;;;;;;19.19;57.91;101224.16;7289677;19;152420;-50
2021/12/31 01:40:59;;;;;;;;;;;;;;;19.18;58.27;101234.50;7285322;19;151936;-50
2021/12/31 01:43:26;;;;;;;;;;;;;;;19.20;57.94;101237.03;7282205;19;153322;-50
2021/12/31 01:45:55;;;;;;;;;;;;;;;19.19;58.29;101238.16;7283801;19;153254;-51
2021/12/31 01:50:50;;;;;;;;;;;;;;;19.20;58.08;101249.06;7283860;19;153020;-51
2021/12/31 01:53:18;;;;;;;;;;;;;;;19.18;58.30;101247.69;7282346;19;152550;-51
2021/12/31 01:55:45;;;;;;;;;;;;;;;19.18;58.25;101237.31;7283508;19;152297;-51
2021/12/31 01:58:15;;;;;;;;;;;;;;;19.19;57.99;101244.59;7284143;19;152653;-51
2021/12/31 02:00:42;;;;;;;;;;;;;;;19.20;58.12;101237.03;7287985;19;153646;-50
2021/12/31 02:03:10;;;;;;;;;;;;;;;19.19;58.35;101250.19;7283567;19;152748;-50
2021/12/31 02:05:38;;;;;;;;;;;;;;;19.20;58.14;101240.66;7280739;19;154313;-51
2021/12/31 02:08:05;;;;;;;;;;;;;;;19.21;57.85;101236.75;7285406;19;153049;-51
2021/12/31 02:10:32;;;;;;;;;;;;;;;19.20;58.07;101243.47;7284984;19;152887;-51
2021/12/31 02:12:59;;;;;;;;;;;;;;;19.19;57.93;101239.00;7279970;19;155072;-51
2021/12/31 02:15:27;;;;;;;;;;;;;;;19.20;58.25;101228.63;7283027;19;152814;-51
2021/12/31 02:17:54;;;;;;;;;;;;;;;19.19;57.85;101226.94;7284171;19;152898;-50
2021/12/31 02:20:21;;;;;;;;;;;;;;;19.18;58.28;101223.31;7282999;19;154200;-50
2021/12/31 02:23:05;;;;;;;;;;;;;;;19.20;58.18;101225.81;7289304;19;152301;-51
2021/12/31 02:25:35;;;;;;;;;;;;;;;19.19;58.16;101210.97;7280741;19;154390;-50
2021/12/31 02:28:02;;;;;;;;;;;;;;;19.20;57.76;101203.41;7282782;19;152258;-50
2021/12/31 02:30:29;;;;;;;;;;;;;;;19.22;58.00;101203.94;7282069;19;152641;-51
2021/12/31 02:32:56;;;;;;;;;;;;;;;19.23;57.63;101202.81;7284143;19;154163;-52
2021/12/31 02:35:23;;;;;;;;;;;;;;;19.22;57.92;101204.78;7283923;19;152343;-52
2021/12/31 02:37:50;;;;;;;;;;;;;;;19.21;58.06;101194.72;7283594;19;152562;-52
2021/12/31 02:40:37;;;;;;;;;;;;;;;19.20;58.00;101183.81;7282434;19;153427;-52
2021/12/31 02:43:06;;;;;;;;;;;;;;;19.20;57.79;101183.81;7288597;19;152292;-51
2021/12/31 02:45:36;;;;;;;;;;;;;;;19.21;58.01;101182.69;7276713;19;154234;-51
2021/12/31 02:48:05;;;;;;;;;;;;;;;19.19;57.63;101176.53;7279566;19;152346;-52
2021/12/31 02:50:34;;;;;;;;;;;;;;;19.19;57.87;101171.75;7279112;19;152194;-52
2021/12/31 02:53:03;;;;;;;;;;;;;;;19.18;57.86;101169.25;7278273;19;153411;-52
2021/12/31 02:55:30;;;;;;;;;;;;;;;19.19;57.97;101174.56;7278848;19;151904;-51
2021/12/31 02:57:58;;;;;;;;;;;;;;;19.22;57.86;101170.31;7278502;19;153665;-51
2021/12/31 03:00:25;;;;;;;;;;;;;;;19.20;57.91;101161.41;7277219;19;154232;-51
2021/12/31 03:02:52;;;;;;;;;;;;;;;19.17;57.64;101171.22;7273862;19;152488;-51
2021/12/31 03:05:20;;;;;;;;;;;;;;;19.19;57.70;101170.94;7285250;19;153447;-51
2021/12/31 03:07:48;;;;;;;;;;;;;;;19.15;58.11;101169.84;7275961;19;153526;-51
2021/12/31 03:10:15;;;;;;;;;;;;;;;19.16;57.77;101169.56;7278147;19;152459;-52
2021/12/31 03:12:43;;;;;;;;;;;;;;;19.16;57.62;101158.34;7277589;19;154193;-51
2021/12/31 03:15:10;;;;;;;;;;;;;;;19.15;58.03;101175.44;7281763;19;151806;-51
2021/12/31 03:17:40;;;;;;;;;;;;;;;19.16;57.82;101163.97;7282636;19;153162;-51
2021/12/31 03:20:11;;;;;;;;;;;;;;;19.15;57.75;101173.50;7279098;19;154057;-51
2021/12/31 03:22:39;;;;;;;;;;;;;;;19.16;57.59;101172.38;7280982;19;151764;-52
2021/12/31 03:25:07;;;;;;;;;;;;;;;19.16;57.96;101175.16;7282908;19;152914;-52
2021/12/31 03:27:34;;;;;;;;;;;;;;;19.15;57.61;101162.28;7290288;19;154127;-51
2021/12/31 03:30:01;;;;;;;;;;;;;;;19.17;57.64;101159.19;7284582;19;153284;-51
2021/12/31 03:32:29;;;;;;;;;;;;;;;19.16;57.82;101163.13;7280258;19;152891;-52
2021/12/31 03:34:57;;;;;;;;;;;;;;;19.16;57.60;101151.91;7281583;19;152041;-52
2021/12/31 03:37:24;;;;;;;;;;;;;;;19.12;57.59;101145.25;7281497;19;152099;-51
2021/12/31 03:39:51;;;;;;;;;;;;;;;19.15;57.59;101151.06;7279006;19;153527;-51
2021/12/31 03:42:18;;;;;;;;;;;;;;;19.13;57.85;101136.53;7280197;19;152633;-51
2021/12/31 03:44:46;;;;;;;;;;;;;;;19.12;57.74;101132.06;7280881;19;152291;-51
2021/12/31 03:47:13;;;;;;;;;;;;;;;19.12;58.01;101125.63;7278198;19;154209;-51
2021/12/31 03:49:40;;;;;;;;;;;;;;;19.12;57.98;101125.63;7289909;19;152293;-51
2021/12/31 03:52:07;;;;;;;;;;;;;;;19.12;58.02;101128.44;7278414;19;154162;-51
2021/12/31 03:54:34;;;;;;;;;;;;;;;19.12;57.63;101123.66;7281129;19;152048;-51
2021/12/31 03:57:01;;;;;;;;;;;;;;;19.09;57.93;101118.63;7281567;19;152923;-51
2021/12/31 03:59:28;;;;;;;;;;;;;;;19.10;57.89;101125.91;7276964;19;154033;-51
2021/12/31 04:01:56;;;;;;;;;;;;;;;19.09;58.05;101118.63;7281032;19;151952;-51
2021/12/31 04:04:23;;;;;;;;;;;;;;;19.09;57.94;101127.88;7281445;19;152067;-51
2021/12/31 04:06:51;;;;;;;;;;;;;;;19.10;57.71;101106.31;7276635;19;154437;-51
2021/12/31 04:09:18;;;;;;;;;;;;;;;19.09;57.69;101111.06;7281160;19;152136;-51
2021/12/31 04:11:45;;;;;;;;;;;;;;;19.08;58.10;101131.81;7287152;19;153605;-51
2021/12/31 04:14:12;;;;;;;;;;;;;;;19.13;57.89;101132.88;7281602;19;152558;-51
2021/12/31 04:16:39;;;;;;;;;;;;;;;19.10;57.63;101128.72;7286917;19;152695;-51
2021/12/31 04:19:06;;;;;;;;;;;;;;;19.08;58.04;101109.41;7282121;19;153655;-51
2021/12/31 04:21:34;;;;;;;;;;;;;;;19.08;57.94;101100.16;7286979;19;151948;-51
2021/12/31 04:26:31;;;;;;;;;;;;;;;19.09;57.81;101080.28;7285388;19;152824;-51
2021/12/31 04:28:58;;;;;;;;;;;;;;;19.07;57.67;101076.94;7284975;19;152343;-51
2021/12/31 04:31:25;;;;;;;;;;;;;;;19.07;57.81;101065.75;7286278;19;153682;-51
2021/12/31 04:33:52;;;;;;;;;;;;;;;19.07;58.15;101073.31;7290773;19;151778;-51
2021/12/31 04:36:19;;;;;;;;;;;;;;;19.08;57.75;101078.59;7287481;19;152820;-51
2021/12/31 04:38:46;;;;;;;;;;;;;;;19.06;57.77;101082.84;7284165;19;153384;-51
2021/12/31 04:41:14;;;;;;;;;;;;;;;19.07;57.89;101106.91;7286638;19;151859;-51
2021/12/31 04:43:41;;;;;;;;;;;;;;;19.08;57.88;101108.56;7286252;19;153113;-51
2021/12/31 04:46:08;;;;;;;;;;;;;;;19.07;57.74;101107.75;7284025;19;152849;-51
2021/12/31 04:48:35;;;;;;;;;;;;;;;19.06;58.19;101108.88;7286273;19;151978;-52
2021/12/31 04:51:02;;;;;;;;;;;;;;;19.06;58.18;101064.06;7287238;19;152873;-51
2021/12/31 04:53:30;;;;;;;;;;;;;;;19.06;57.79;101083.66;7291672;19;154953;-52
2021/12/31 04:55:57;;;;;;;;;;;;;;;19.04;58.15;101099.91;7285847;19;154009;-52
2021/12/31 04:58:24;;;;;;;;;;;;;;;19.05;58.28;101107.19;7285436;19;154627;-51
2021/12/31 05:00:51;;;;;;;;;;;;;;;19.04;57.96;101080.31;7284988;19;152595;-50
2021/12/31 05:03:19;;;;;;;;;;;;;;;19.06;58.24;101078.06;7284857;19;153743;-51
2021/12/31 05:05:47;;;;;;;;;;;;;;;19.06;58.28;101066.03;7284512;19;154232;-52
2021/12/31 05:08:14;;;;;;;;;;;;;;;19.05;57.81;101067.16;7281258;19;152189;-50
2021/12/31 05:10:41;;;;;;;;;;;;;;;19.04;58.04;101066.31;7285571;19;153061;-50
2021/12/31 05:13:10;;;;;;;;;;;;;;;19.03;57.99;101081.44;7284298;19;152626;-50
2021/12/31 05:15:44;;;;;;;;;;;;;;;19.05;58.33;101095.16;7288601;19;151658;-50
2021/12/31 05:18:11;;;;;;;;;;;;;;;19.07;57.88;101098.50;7284858;19;153470;-51
2021/12/31 05:20:38;;;;;;;;;;;;;;;19.07;57.93;101093.75;7284263;19;151955;-50
2021/12/31 05:23:05;;;;;;;;;;;;;;;19.05;57.86;101083.97;7285210;19;153502;-50
2021/12/31 05:25:33;;;;;;;;;;;;;;;19.07;58.11;101106.91;7280509;19;154084;-50
2021/12/31 05:28:00;;;;;;;;;;;;;;;19.09;58.01;101091.47;7285053;19;151759;-50
2021/12/31 05:30:27;;;;;;;;;;;;;;;19.05;58.17;101106.34;7285546;19;152085;-50
2021/12/31 05:32:54;;;;;;;;;;;;;;;19.05;58.38;101090.41;7283516;19;154152;-51
2021/12/31 05:35:21;;;;;;;;;;;;;;;19.03;57.90;101084.25;7287906;19;152050;-50
2021/12/31 05:37:48;;;;;;;;;;;;;;;19.05;58.19;101084.78;7290566;19;152268;-50
2021/12/31 05:40:15;;;;;;;;;;;;;;;19.06;58.03;101088.44;7283662;19;152079;-50
2021/12/31 05:42:42;;;;;;;;;;;;;;;19.08;57.91;101088.97;7284911;19;153334;-51
2021/12/31 05:45:09;;;;;;;;;;;;;;;19.07;58.34;101084.50;7284074;19;153441;-51
2021/12/31 05:47:37;;;;;;;;;;;;;;;19.04;58.17;101102.72;7282674;19;153231;-51
2021/12/31 05:50:07;;;;;;;;;;;;;;;19.06;57.90;101105.25;7281391;19;153394;-51
2021/12/31 05:52:35;;;;;;;;;;;;;;;19.04;58.32;101096.28;7282309;19;153897;-51
2021/12/31 05:55:05;;;;;;;;;;;;;;;19.07;58.18;101106.91;7284178;19;152058;-51
2021/12/31 05:57:32;;;;;;;;;;;;;;;19.09;57.86;101085.88;7281484;19;152529;-50
2021/12/31 05:59:59;;;;;;;;;;;;;;;19.04;57.98;101074.72;7290552;19;154647;-51
2021/12/31 06:02:26;;;;;;;;;;;;;;;19.08;58.36;101074.97;7284543;19;154016;-51
2021/12/31 06:04:53;;;;;;;;;;;;;;;19.06;58.21;101074.44;7284956;19;154233;-51
2021/12/31 06:07:20;;;;;;;;;;;;;;;19.03;58.21;101007.84;7283918;19;152647;-51
2021/12/31 06:09:47;;;;;;;;;;;;;;;19.01;58.35;101047.31;7285507;19;152901;-51
2021/12/31 06:12:14;;;;;;;;;;;;;;;19.07;57.91;101056.50;7283194;19;153673;-52
2021/12/31 06:14:41;;;;;;;;;;;;;;;19.05;58.18;101072.75;7284206;19;152235;-51
2021/12/31 06:17:09;;;;;;;;;;;;;;;19.03;58.49;101075.84;7283726;19;152060;-51
2021/12/31 06:19:38;;;;;;;;;;;;;;;19.04;58.32;101063.50;7281997;19;154305;-51
2021/12/31 06:22:09;;;;;;;;;;;;;;;19.04;58.58;101049.50;7290547;19;152389;-51
2021/12/31 06:24:36;;;;;;;;;;;;;;;19.04;58.48;101046.72;7279495;19;153398;-51
2021/12/31 06:27:03;;;;;;;;;;;;;;;19.01;58.63;101038.91;7283450;19;151550;-51
2021/12/31 06:29:30;;;;;;;;;;;;;;;19.05;58.36;101084.78;7284545;19;152954;-51
2021/12/31 06:31:57;;;;;;;;;;;;;;;19.07;58.35;101101.31;7283429;19;153844;-51
2021/12/31 06:34:25;;;;;;;;;;;;;;;19.06;58.28;101092.06;7281501;19;152359;-52
2021/12/31 06:36:52;;;;;;;;;;;;;;;19.05;58.45;101096.00;7285498;19;153241;-51
2021/12/31 06:39:19;;;;;;;;;;;;;;;19.07;58.61;101102.16;7284917;19;153301;-52
2021/12/31 06:41:46;;;;;;;;;;;;;;;19.06;58.65;101092.06;7287220;19;151825;-51
2021/12/31 06:44:14;;;;;;;;;;;;;;;19.05;58.25;101096.00;7281919;19;152683;-51
2021/12/31 06:46:40;;;;;;;;;;;;;;;19.04;58.38;101099.91;7285000;19;151865;-52
2021/12/31 06:49:08;;;;;;;;;;;;;;;19.08;58.49;101078.59;7281867;19;153853;-51
2021/12/31 06:51:35;;;;;;;;;;;;;;;19.06;58.29;101066.88;7282202;19;153812;-51
2021/12/31 06:54:02;;;;;;;;;;;;;;;19.05;58.47;101062.41;7283422;19;152144;-51
2021/12/31 06:56:29;;;;;;;;;;;;;;;19.05;58.24;101073.59;7283555;19;153797;-51
2021/12/31 06:58:56;;;;;;;;;;;;;;;19.05;58.68;101110.00;7280142;19;155054;-51
2021/12/31 07:01:24;;;;;;;;;;;;;;;19.08;58.33;101116.97;7280582;19;151903;-51
2021/12/31 07:03:52;;;;;;;;;;;;;;;19.09;58.35;101127.03;7290226;19;152628;-51
2021/12/31 07:06:19;;;;;;;;;;;;;;;19.08;58.57;101133.75;7282525;19;152113;-51
2021/12/31 07:08:46;;;;;;;;;;;;;;;19.07;58.49;101155.34;7279621;19;153416;-51
2021/12/31 07:11:13;;;;;;;;;;;;;;;19.06;58.67;101159.28;7280856;19;153887;-52
2021/12/31 07:13:40;;;;;;;;;;;;;;;19.08;58.78;101170.16;7283513;19;152210;-52
2021/12/31 07:16:07;;;;;;;;;;;;;;;19.07;58.45;101179.72;7283423;19;153108;-52
2021/12/31 07:18:34;;;;;;;;;;;;;;;19.08;58.58;101190.63;7279566;19;152662;-51
2021/12/31 07:21:02;;;;;;;;;;;;;;;19.07;58.65;101197.38;7280510;19;152001;-51
2021/12/31 07:23:29;;;;;;;;;;;;;;;19.05;58.77;101236.00;7280545;19;156223;-51
2021/12/31 07:25:56;;;;;;;;;;;;;;;19.03;58.57;101201.84;7288576;19;153231;-51
2021/12/31 07:28:23;;;;;;;;;;;;;;;19.02;58.69;101197.41;7281009;19;153169;-52
2021/12/31 07:30:50;;;;;;;;;;;;;;;19.00;58.71;101199.66;7279457;19;154089;-51
2021/12/31 07:33:19;;;;;;;;;;;;;;;19.01;58.83;101214.50;7282334;19;152127;-51
2021/12/31 07:35:46;;;;;;;;;;;;;;;19.02;58.67;101200.22;7278338;19;152355;-52
2021/12/31 07:40:44;;;;;;;;;;;;;;;19.01;58.68;101164.09;7281644;19;151885;-51
2021/12/31 07:43:12;;;;;;;;;;;;;;;19.00;59.26;101176.41;7282382;19;152799;-52
2021/12/31 07:45:39;;;;;;;;;;;;;;;19.03;59.08;101171.06;7281616;19;153480;-52
2021/12/31 07:48:07;;;;;;;;;;;;;;;19.01;59.19;101170.53;7288674;19;151928;-52
2021/12/31 07:50:36;;;;;;;;;;;;;;;19.00;59.33;101171.66;7279819;19;153521;-51
2021/12/31 07:53:04;;;;;;;;;;;;;;;18.99;59.49;101177.53;7279082;19;152564;-51
2021/12/31 07:55:31;;;;;;;;;;;;;;;19.02;59.34;101176.97;7279307;19;153864;-52
2021/12/31 07:57:58;;;;;;;;;;;;;;;19.02;59.41;101186.22;7278469;19;153864;-52
2021/12/31 08:00:25;;;;;;;;;;;;;;;19.02;59.15;101179.75;7279472;19;152003;-51
2021/12/31 08:02:54;;;;;;;;;;;;;;;19.03;59.02;101181.44;7282552;19;153500;-52
2021/12/31 08:05:22;;;;;;;;;;;;;;;19.02;59.32;101182.56;7280038;19;154018;-51
2021/12/31 08:07:49;;;;;;;;;;;;;;;19.02;59.54;101157.38;7279241;19;151893;-52
2021/12/31 08:10:17;;;;;;;;;;;;;;;19.03;59.29;101145.84;7286642;19;152009;-51
2021/12/31 08:12:52;;;;;;;;;;;;;;;19.02;59.26;101155.41;7280909;19;151725;-51
2021/12/31 08:15:19;;;;;;;;;;;;;;;19.05;59.43;101165.16;7282853;19;152553;-51
2021/12/31 08:17:46;;;;;;;;;;;;;;;19.04;59.35;101192.31;7280727;19;154547;-51
2021/12/31 08:20:13;;;;;;;;;;;;;;;19.03;59.20;101217.84;7280375;19;152086;-51
2021/12/31 08:22:40;;;;;;;;;;;;;;;19.05;59.62;101223.97;7279935;19;152828;-51
2021/12/31 08:25:08;;;;;;;;;;;;;;;19.07;59.72;101235.75;7277674;19;154073;-52
2021/12/31 08:27:38;;;;;;;;;;;;;;;19.07;59.36;101247.78;7281709;19;152145;-51
2021/12/31 08:30:07;;;;;;;;;;;;;;;19.06;59.41;101254.50;7279107;19;153738;-52
2021/12/31 08:32:35;;;;;;;;;;;;;;;19.05;59.41;101238.81;7286611;19;152341;-51
2021/12/31 08:35:03;;;;;;;;;;;;;;;19.03;59.68;101238.25;7279946;19;153083;-51
2021/12/31 08:37:30;;;;;;;;;;;;;;;19.03;59.49;101255.06;7278425;19;153438;-51
2021/12/31 08:39:57;;;;;;;;;;;;;;;19.06;59.77;101253.66;7280843;19;152124;-51
2021/12/31 08:42:25;;;;;;;;;;;;;;;19.03;59.74;101259.84;7277309;19;153905;-51
2021/12/31 08:44:52;;;;;;;;;;;;;;;19.03;59.35;101255.06;7276802;19;153723;-52
2021/12/31 08:47:27;;;;;;;;;;;;;;;19.04;59.93;101248.34;7279611;19;152480;-52
2021/12/31 08:49:54;;;;;;;;;;;;;;;19.05;59.57;101238.81;7280120;19;153134;-51
2021/12/31 08:52:21;;;;;;;;;;;;;;;19.04;59.87;101245.53;7288049;19;153325;-51
2021/12/31 08:54:48;;;;;;;;;;;;;;;19.05;59.94;101241.63;7279598;19;153676;-51
2021/12/31 08:57:16;;;;;;;;;;;;;;;19.07;59.58;101232.94;7277897;19;152770;-51
2021/12/31 08:59:43;;;;;;;;;;;;;;;19.06;59.98;101245.25;7279181;19;152077;-51
2021/12/31 09:02:11;;;;;;;;;;;;;;;19.07;59.52;101247.78;7280453;19;153345;-51
2021/12/31 09:04:39;;;;;;;;;;;;;;;19.07;59.87;101235.75;7281680;19;153765;-51
2021/12/31 09:07:06;;;;;;;;;;;;;;;19.07;59.50;101244.97;7282526;19;152653;-51
2021/12/31 09:09:33;;;;;;;;;;;;;;;19.09;59.47;101250.25;7285449;19;153510;-51
2021/12/31 09:12:00;;;;;;;;;;;;;;;19.09;59.90;101264.28;7285820;19;153814;-51
2021/12/31 09:14:27;;;;;;;;;;;;;;;19.12;59.99;101254.47;7293564;19;151866;-51
2021/12/31 09:16:55;;;;;;;;;;;;;;;19.11;59.72;101276.03;7284490;19;153251;-51
2021/12/31 09:19:22;;;;;;;;;;;;;;;19.09;60.19;101281.06;7286112;19;152061;-52
2021/12/31 09:21:49;;;;;;;;;;;;;;;19.01;60.59;101276.94;7280304;19;152879;-51
2021/12/31 09:24:16;;;;;;;;;;;;;;;18.90;62.40;101278.13;7280496;19;152626;-52
2021/12/31 09:26:43;;;;;;;;;;;;;;;18.89;61.88;101286.81;7284211;19;152260;-52
2021/12/31 09:29:10;;;;;;;;;;;;;;;18.86;61.18;101293.81;7284904;19;153217;-51
2021/12/31 09:31:38;;;;;;;;;;;;;;;18.86;61.45;101301.38;7283481;19;154378;-51
2021/12/31 09:34:05;;;;;;;;;;;;;;;18.86;61.48;101290.19;7288224;19;152134;-51
2021/12/31 09:36:32;;;;;;;;;;;;;;;18.87;61.62;101309.50;7292721;19;152348;-51
2021/12/31 09:38:59;;;;;;;;;;;;;;;18.88;61.67;101321.53;7285092;19;151904;-51
2021/12/31 09:41:26;;;;;;;;;;;;;;;18.88;61.54;101322.38;7284031;19;152693;-51
2021/12/31 09:43:54;;;;;;;;;;;;;;;18.89;61.24;101338.06;7283675;19;154142;-51
2021/12/31 09:46:22;;;;;;;;;;;;;;;18.93;61.52;101325.16;7285157;19;152326;-51
2021/12/31 09:48:50;;;;;;;;;;;;;;;18.95;61.38;101320.09;7285073;19;152791;-51
2021/12/31 09:51:17;;;;;;;;;;;;;;;18.97;61.32;101322.59;7284900;19;152245;-51
2021/12/31 09:53:45;;;;;;;;;;;;;;;18.96;61.31;101337.72;7284646;19;152007;-51
2021/12/31 09:56:13;;;;;;;;;;;;;;;18.97;61.18;101348.66;7285919;19;152863;-52
2021/12/31 09:58:41;;;;;;;;;;;;;;;19.01;61.26;101351.69;7292129;19;154173;-51
2021/12/31 10:01:09;;;;;;;;;;;;;;;19.04;60.79;101357.56;7284549;19;153692;-51
2021/12/31 10:03:37;;;;;;;;;;;;;;;19.04;60.98;101368.75;7281308;19;154019;-51
2021/12/31 10:06:06;;;;;;;;;;;;;;;19.08;60.75;101353.03;7284038;19;152594;-51
2021/12/31 10:08:42;;;;;;;;;;;;;;;19.07;60.80;101342.16;7284579;19;153614;-51
2021/12/31 10:11:09;;;;;;;;;;;;;;;19.10;60.42;101359.22;7280574;19;154206;-52
2021/12/31 10:13:39;;;;;;;;;;;;;;;19.12;60.52;101356.13;7283995;19;152098;-51
2021/12/31 10:16:18;;;;;;;;;;;;;;;19.13;60.74;101356.94;7280611;19;152934;-51
2021/12/31 10:18:45;;;;;;;;;;;;;;;19.16;60.50;101367.59;7283659;19;154103;-51
2021/12/31 10:21:12;;;;;;;;;;;;;;;19.16;60.74;101382.44;7292235;19;153666;-52
2021/12/31 10:23:39;;;;;;;;;;;;;;;19.18;60.32;101390.53;7283627;19;153375;-51
2021/12/31 10:26:13;;;;;;;;;;;;;;;19.17;60.31;101381.28;7282618;19;152310;-52
2021/12/31 10:28:44;;;;;;;;;;;;;;;19.17;60.40;101372.06;7284254;19;153091;-51
2021/12/31 10:31:13;;;;;;;;;;;;;;;19.20;60.36;101377.09;7282768;19;154088;-51
2021/12/31 10:33:42;;;;;;;;;;;;;;;19.24;60.30;101389.38;7282599;19;152004;-52
2021/12/31 10:36:20;;;;;;;;;;;;;;;19.20;60.54;101389.13;7282506;19;152912;-51
2021/12/31 10:38:49;;;;;;;;;;;;;;;19.21;60.53;101387.16;7284947;19;154122;-51
2021/12/31 10:41:21;;;;;;;;;;;;;;;19.19;60.94;101395.84;7281627;19;152490;-51
2021/12/31 10:43:54;;;;;;;;;;;;;;;19.22;60.63;101397.22;7287120;19;152577;-51
2021/12/31 10:46:21;;;;;;;;;;;;;;;19.20;60.56;101382.69;7284629;19;151986;-52
2021/12/31 10:48:50;;;;;;;;;;;;;;;19.24;60.56;101378.19;7283061;19;152976;-51
2021/12/31 10:51:18;;;;;;;;;;;;;;;19.24;60.91;101373.41;7282910;19;152955;-51
2021/12/31 10:53:51;;;;;;;;;;;;;;;19.18;60.93;101368.13;7282631;19;151878;-51
2021/12/31 10:56:21;;;;;;;;;;;;;;;19.21;60.73;101364.75;7279821;19;154880;-52
2021/12/31 10:58:54;;;;;;;;;;;;;;;19.22;60.82;101369.22;7281728;19;155313;-51
2021/12/31 11:01:21;;;;;;;;;;;;;;;19.23;60.66;101371.72;7284225;19;152189;-51
2021/12/31 11:03:49;;;;;;;;;;;;;;;19.24;60.58;101352.97;7291121;19;153319;-52
2021/12/31 11:06:20;;;;;;;;;;;;;;;19.22;60.86;101350.44;7279608;19;152344;-51
2021/12/31 11:08:49;;;;;;;;;;;;;;;19.20;61.32;101358.31;7282693;19;153805;-51
2021/12/31 11:11:19;;;;;;;;;;;;;;;19.27;60.83;101352.38;7279232;19;152418;-52
2021/12/31 11:13:47;;;;;;;;;;;;;;;19.27;60.72;101367.22;7280316;19;151554;-51
2021/12/31 11:16:14;;;;;;;;;;;;;;;19.26;60.54;101356.34;7280941;19;153252;-51
2021/12/31 11:18:42;;;;;;;;;;;;;;;19.26;60.23;101357.13;7279520;19;153517;-51
2021/12/31 11:21:11;;;;;;;;;;;;;;;19.26;60.32;101350.72;7282603;19;152684;-51
2021/12/31 11:23:38;;;;;;;;;;;;;;;19.26;60.10;101345.94;7278684;19;154226;-51
2021/12/31 11:26:06;;;;;;;;;;;;;;;19.29;59.98;101347.34;7288933;19;153412;-51
2021/12/31 11:28:35;;;;;;;;;;;;;;;19.31;60.34;101351.50;7283204;19;153717;-51
2021/12/31 11:31:05;;;;;;;;;;;;;;;19.35;60.80;101375.00;7283700;19;153450;-51
2021/12/31 11:33:33;;;;;;;;;;;;;;;19.39;61.14;101358.47;7278197;19;152393;-51
2021/12/31 11:36:05;;;;;;;;;;;;;;;19.44;61.09;101350.88;7282984;19;152798;-51
2021/12/31 11:38:42;;;;;;;;;;;;;;;19.50;61.49;101360.09;7280618;19;152726;-52
2021/12/31 11:41:12;;;;;;;;;;;;;;;19.54;61.27;101348.00;7281784;19;152505;-51
2021/12/31 11:43:41;;;;;;;;;;;;;;;19.58;61.69;101367.88;7284626;19;153166;-51
2021/12/31 11:46:09;;;;;;;;;;;;;;;19.62;61.30;101374.59;7282487;19;153470;-52
2021/12/31 11:48:39;;;;;;;;;;;;;;;19.68;61.06;101366.97;7291298;19;151892;-52
2021/12/31 11:51:08;;;;;;;;;;;;;;;19.72;60.92;101366.09;7279482;19;154426;-51
2021/12/31 11:54:07;;;;;;;;;;;;;;;19.79;60.59;101386.22;7279199;19;152086;-52
2021/12/31 11:56:34;;;;;;;;;;;;;;;19.84;60.79;101377.78;7279704;19;152669;-52
2021/12/31 11:59:05;;;;;;;;;;;;;;;19.91;60.51;101378.25;7279516;19;153056;-51
2021/12/31 12:01:36;;;;;;;;;;;;;;;19.96;60.23;101369.81;7281535;19;151808;-52
2021/12/31 12:04:07;;;;;;;;;;;;;;;20.04;59.94;101395.53;7283387;19;154067;-51
2021/12/31 12:06:39;;;;;;;;;;;;;;;20.10;59.46;101380.34;7278896;19;153503;-51
2021/12/31 12:09:06;;;;;;;;;;;;;;;20.14;59.58;101395.44;7283128;19;152251;-51
2021/12/31 12:11:36;;;;;;;;;;;;;;;20.20;59.40;101378.28;7285757;19;152713;-52
2021/12/31 12:14:06;;;;;;;;;;;;;;;20.24;59.32;101390.59;7281284;19;152278;-52
2021/12/31 12:16:36;;;;;;;;;;;;;;;20.31;58.90;101398.69;7283323;19;152748;-49
2021/12/31 12:19:05;;;;;;;;;;;;;;;20.37;58.84;101415.19;7280506;19;153301;-49
2021/12/31 12:21:35;;;;;;;;;;;;;;;20.41;58.28;101416.25;7281348;19;151878;-49
2021/12/31 12:24:02;;;;;;;;;;;;;;;20.46;58.53;101418.19;7280440;19;153060;-49
2021/12/31 12:26:29;;;;;;;;;;;;;;;20.53;58.42;101418.69;7277988;19;153054;-49
2021/12/31 12:28:56;;;;;;;;;;;;;;;20.59;58.32;101420.28;7279531;19;151910;-51
2021/12/31 12:31:23;;;;;;;;;;;;;;;20.64;58.12;101427.81;7281218;19;152769;-52
2021/12/31 12:33:59;;;;;;;;;;;;;;;20.69;57.77;101416.53;7286616;19;153889;-52
2021/12/31 12:36:26;;;;;;;;;;;;;;;20.74;57.56;101408.88;7286861;19;153889;-49
2021/12/31 12:38:56;;;;;;;;;;;;;;;20.78;57.49;101420.34;7286837;19;154398;-52
2021/12/31 12:41:23;;;;;;;;;;;;;;;20.82;57.39;101416.66;7287166;19;152571;-51
2021/12/31 12:43:50;;;;;;;;;;;;;;;20.86;56.89;101420.53;7287342;19;153387;-51
2021/12/31 12:46:19;;;;;;;;;;;;;;;20.90;57.19;101428.34;7285287;19;152312;-51
2021/12/31 12:48:49;;;;;;;;;;;;;;;20.95;56.83;101425.47;7288836;19;151884;-52